sensor_id;sensor_type;location;lat;lon;timestamp;pressure;altitude;pressure_sealevel;temperature;humidity
75039;BME280;63609;49.992;14.512;2023-02-01T00:01:25;97975.19;;;0.96;65.99
75039;BME280;63609;49.992;14.512;2023-02-01T00:03:52;97972.00;;;1.19;66.32
75039;BME280;63609;49.992;14.512;2023-02-01T00:06:19;97977.84;;;1.10;65.83
75039;BME280;63609;49.992;14.512;2023-02-01T00:08:47;97978.00;;;1.21;66.24
75039;BME280;63609;49.992;14.512;2023-02-01T00:11:14;97970.59;;;0.85;67.34
75039;BME280;63609;49.992;14.512;2023-02-01T00:13:46;97951.19;;;0.73;67.78
75039;BME280;63609;49.992;14.512;2023-02-01T00:16:22;97985.06;;;0.92;67.46
75039;BME280;63609;49.992;14.512;2023-02-01T00:19:04;97987.22;;;1.00;67.30
75039;BME280;63609;49.992;14.512;2023-02-01T00:21:31;97998.94;;;1.23;66.15
75039;BME280;63609;49.992;14.512;2023-02-01T00:23:58;97996.31;;;0.94;67.73
75039;BME280;63609;49.992;14.512;2023-02-01T00:26:31;98005.22;;;0.77;67.77
75039;BME280;63609;49.992;14.512;2023-02-01T00:28:58;97994.00;;;1.04;67.51
75039;BME280;63609;49.992;14.512;2023-02-01T00:31:26;97999.78;;;0.80;68.25
75039;BME280;63609;49.992;14.512;2023-02-01T00:33:57;97974.91;;;0.72;68.50
75039;BME280;63609;49.992;14.512;2023-02-01T00:36:24;97972.44;;;0.69;68.50
75039;BME280;63609;49.992;14.512;2023-02-01T00:38:51;97977.53;;;1.00;68.05
75039;BME280;63609;49.992;14.512;2023-02-01T00:41:20;97991.25;;;0.77;68.51
75039;BME280;63609;49.992;14.512;2023-02-01T00:43:47;97973.88;;;0.89;68.31
75039;BME280;63609;49.992;14.512;2023-02-01T00:46:16;97983.50;;;0.60;69.66
75039;BME280;63609;49.992;14.512;2023-02-01T00:48:44;97994.16;;;0.72;69.35
75039;BME280;63609;49.992;14.512;2023-02-01T00:51:16;97989.66;;;0.74;69.47
75039;BME280;63609;49.992;14.512;2023-02-01T00:53:43;97994.13;;;0.58;69.90
75039;BME280;63609;49.992;14.512;2023-02-01T00:56:10;97989.47;;;0.92;69.17
75039;BME280;63609;49.992;14.512;2023-02-01T00:58:38;97990.88;;;0.83;68.80
75039;BME280;63609;49.992;14.512;2023-02-01T01:01:17;97988.50;;;0.64;69.37
75039;BME280;63609;49.992;14.512;2023-02-01T01:03:48;97987.22;;;1.00;68.33
75039;BME280;63609;49.992;14.512;2023-02-01T01:06:20;97986.00;;;0.77;68.56
75039;BME280;63609;49.992;14.512;2023-02-01T01:08:47;97981.59;;;0.77;69.59
75039;BME280;63609;49.992;14.512;2023-02-01T01:11:16;97983.94;;;0.82;68.77
75039;BME280;63609;49.992;14.512;2023-02-01T01:13:47;97994.63;;;0.79;68.74
75039;BME280;63609;49.992;14.512;2023-02-01T01:16:18;97988.63;;;0.91;69.30
75039;BME280;63609;49.992;14.512;2023-02-01T01:18:45;97977.56;;;0.86;68.34
75039;BME280;63609;49.992;14.512;2023-02-01T01:21:14;97967.03;;;0.86;68.82
75039;BME280;63609;49.992;14.512;2023-02-01T01:23:41;97971.06;;;0.92;68.21
75039;BME280;63609;49.992;14.512;2023-02-01T01:26:14;97976.63;;;0.73;68.12
75039;BME280;63609;49.992;14.512;2023-02-01T01:28:41;97980.84;;;0.75;68.70
75039;BME280;63609;49.992;14.512;2023-02-01T01:31:12;97987.03;;;0.74;68.57
75039;BME280;63609;49.992;14.512;2023-02-01T01:33:40;97974.75;;;0.75;68.40
75039;BME280;63609;49.992;14.512;2023-02-01T01:36:08;97980.19;;;0.86;68.23
75039;BME280;63609;49.992;14.512;2023-02-01T01:38:40;97986.66;;;0.95;67.47
75039;BME280;63609;49.992;14.512;2023-02-01T01:41:08;97987.50;;;0.81;68.18
75039;BME280;63609;49.992;14.512;2023-02-01T01:43:58;97977.16;;;0.92;68.29
75039;BME280;63609;49.992;14.512;2023-02-01T01:46:27;97981.19;;;0.98;68.15
75039;BME280;63609;49.992;14.512;2023-02-01T01:49:20;97985.44;;;0.72;67.83
75039;BME280;63609;49.992;14.512;2023-02-01T01:51:51;97984.03;;;0.80;68.40
75039;BME280;63609;49.992;14.512;2023-02-01T01:54:27;97989.66;;;0.89;67.45
75039;BME280;63609;49.992;14.512;2023-02-01T01:57:00;97989.09;;;0.84;67.17
75039;BME280;63609;49.992;14.512;2023-02-01T01:59:29;97981.69;;;0.90;66.85
75039;BME280;63609;49.992;14.512;2023-02-01T02:01:58;97977.94;;;0.80;67.49
75039;BME280;63609;49.992;14.512;2023-02-01T02:04:25;97986.28;;;0.87;66.51
75039;BME280;63609;49.992;14.512;2023-02-01T02:07:05;97986.13;;;1.04;66.21
75039;BME280;63609;49.992;14.512;2023-02-01T02:09:35;97986.84;;;1.20;64.98
75039;BME280;63609;49.992;14.512;2023-02-01T02:12:03;97985.81;;;0.94;65.44
75039;BME280;63609;49.992;14.512;2023-02-01T02:14:32;97977.38;;;1.03;64.47
75039;BME280;63609;49.992;14.512;2023-02-01T02:39:48;98008.44;;;0.82;64.71
75039;BME280;63609;49.992;14.512;2023-02-01T02:42:27;98007.50;;;0.98;64.35
75039;BME280;63609;49.992;14.512;2023-02-01T02:48:13;98009.09;;;0.86;66.10
75039;BME280;63609;49.992;14.512;2023-02-01T02:56:53;98004.25;;;0.64;67.68
75039;BME280;63609;49.992;14.512;2023-02-01T02:59:43;97998.91;;;0.66;68.05
75039;BME280;63609;49.992;14.512;2023-02-01T03:02:32;97987.81;;;0.46;68.03
75039;BME280;63609;49.992;14.512;2023-02-01T03:05:19;97978.81;;;0.50;68.60
75039;BME280;63609;49.992;14.512;2023-02-01T03:08:02;97977.50;;;0.58;68.17
75039;BME280;63609;49.992;14.512;2023-02-01T03:19:02;97967.56;;;0.63;68.54
75039;BME280;63609;49.992;14.512;2023-02-01T03:21:53;97973.94;;;0.44;67.88
75039;BME280;63609;49.992;14.512;2023-02-01T03:24:25;97980.88;;;0.45;68.73
75039;BME280;63609;49.992;14.512;2023-02-01T03:27:47;97970.94;;;0.50;68.65
75039;BME280;63609;49.992;14.512;2023-02-01T03:32:34;97958.94;;;0.46;68.56
75039;BME280;63609;49.992;14.512;2023-02-01T03:37:56;97944.25;;;0.28;68.54
75039;BME280;63609;49.992;14.512;2023-02-01T03:40:30;97945.72;;;0.62;67.26
75039;BME280;63609;49.992;14.512;2023-02-01T03:43:01;97925.63;;;0.47;67.94
75039;BME280;63609;49.992;14.512;2023-02-01T03:45:36;97938.84;;;0.45;67.13
75039;BME280;63609;49.992;14.512;2023-02-01T03:48:08;97936.69;;;0.38;67.72
75039;BME280;63609;49.992;14.512;2023-02-01T03:50:38;97929.00;;;0.49;67.03
75039;BME280;63609;49.992;14.512;2023-02-01T03:53:18;97923.28;;;0.57;66.92
75039;BME280;63609;49.992;14.512;2023-02-01T03:55:46;97921.78;;;0.67;65.41
75039;BME280;63609;49.992;14.512;2023-02-01T03:58:24;97918.78;;;0.59;66.54
75039;BME280;63609;49.992;14.512;2023-02-01T04:00:57;97921.97;;;0.92;65.72
75039;BME280;63609;49.992;14.512;2023-02-01T04:03:27;97924.91;;;0.88;65.26
75039;BME280;63609;49.992;14.512;2023-02-01T04:05:55;97913.16;;;0.79;65.82
75039;BME280;63609;49.992;14.512;2023-02-01T04:08:26;97938.47;;;0.52;66.26
75039;BME280;63609;49.992;14.512;2023-02-01T04:10:53;97946.84;;;0.87;65.36
75039;BME280;63609;49.992;14.512;2023-02-01T04:13:20;97943.19;;;0.61;65.99
75039;BME280;63609;49.992;14.512;2023-02-01T04:15:47;97952.09;;;0.58;65.36
75039;BME280;63609;49.992;14.512;2023-02-01T04:18:16;97947.22;;;0.52;65.95
75039;BME280;63609;49.992;14.512;2023-02-01T04:20:43;97956.16;;;0.34;67.33
75039;BME280;63609;49.992;14.512;2023-02-01T04:23:14;97952.94;;;0.44;66.57
75039;BME280;63609;49.992;14.512;2023-02-01T04:25:42;97940.34;;;0.49;67.38
75039;BME280;63609;49.992;14.512;2023-02-01T04:28:09;97935.19;;;0.48;67.40
75039;BME280;63609;49.992;14.512;2023-02-01T04:30:36;97928.31;;;0.31;67.74
75039;BME280;63609;49.992;14.512;2023-02-01T04:33:03;97941.28;;;0.48;67.42
75039;BME280;63609;49.992;14.512;2023-02-01T04:35:33;97932.38;;;0.51;68.09
75039;BME280;63609;49.992;14.512;2023-02-01T04:38:01;97931.16;;;0.42;68.37
75039;BME280;63609;49.992;14.512;2023-02-01T04:40:28;97928.81;;;0.66;67.39
75039;BME280;63609;49.992;14.512;2023-02-01T04:42:54;97935.06;;;0.35;68.66
75039;BME280;63609;49.992;14.512;2023-02-01T04:45:21;97926.34;;;0.35;68.52
75039;BME280;63609;49.992;14.512;2023-02-01T04:47:48;97927.50;;;0.45;68.00
75039;BME280;63609;49.992;14.512;2023-02-01T04:50:16;97914.19;;;0.48;67.81
75039;BME280;63609;49.992;14.512;2023-02-01T04:52:43;97913.63;;;0.43;68.81
75039;BME280;63609;49.992;14.512;2023-02-01T04:55:12;97897.31;;;0.38;68.69
75039;BME280;63609;49.992;14.512;2023-02-01T04:57:40;97897.78;;;0.73;67.96
75039;BME280;63609;49.992;14.512;2023-02-01T05:00:08;97895.72;;;0.49;67.89
75039;BME280;63609;49.992;14.512;2023-02-01T05:02:35;97890.66;;;0.46;68.50
75039;BME280;63609;49.992;14.512;2023-02-01T05:05:07;97872.44;;;0.43;68.61
75039;BME280;63609;49.992;14.512;2023-02-01T05:07:34;97866.97;;;0.18;69.65
75039;BME280;63609;49.992;14.512;2023-02-01T05:10:01;97881.22;;;0.28;69.83
75039;BME280;63609;49.992;14.512;2023-02-01T05:12:28;97888.41;;;0.40;68.88
75039;BME280;63609;49.992;14.512;2023-02-01T05:15:14;97890.63;;;0.32;68.71
75039;BME280;63609;49.992;14.512;2023-02-01T05:17:41;97887.44;;;0.27;68.81
75039;BME280;63609;49.992;14.512;2023-02-01T05:20:08;97885.09;;;0.37;68.83
75039;BME280;63609;49.992;14.512;2023-02-01T05:22:35;97867.09;;;0.45;68.61
75039;BME280;63609;49.992;14.512;2023-02-01T05:25:03;97886.59;;;0.55;68.06
75039;BME280;63609;49.992;14.512;2023-02-01T05:27:32;97884.78;;;0.13;69.65
75039;BME280;63609;49.992;14.512;2023-02-01T05:30:06;97898.88;;;0.26;69.99
75039;BME280;63609;49.992;14.512;2023-02-01T05:32:33;97895.59;;;0.37;69.46
75039;BME280;63609;49.992;14.512;2023-02-01T05:35:00;97890.84;;;-0.01;70.73
75039;BME280;63609;49.992;14.512;2023-02-01T05:37:27;97900.09;;;-0.09;70.97
75039;BME280;63609;49.992;14.512;2023-02-01T05:39:55;97893.63;;;-0.04;71.07
75039;BME280;63609;49.992;14.512;2023-02-01T05:42:22;97891.56;;;-0.13;70.79
75039;BME280;63609;49.992;14.512;2023-02-01T05:44:49;97886.28;;;-0.27;72.33
75039;BME280;63609;49.992;14.512;2023-02-01T05:47:16;97884.88;;;0.11;71.24
75039;BME280;63609;49.992;14.512;2023-02-01T05:49:43;97888.22;;;-0.01;71.00
75039;BME280;63609;49.992;14.512;2023-02-01T05:52:13;97872.19;;;0.04;70.59
75039;BME280;63609;49.992;14.512;2023-02-01T05:54:46;97867.59;;;-0.07;70.29
75039;BME280;63609;49.992;14.512;2023-02-01T05:57:16;97855.00;;;-0.16;70.78
75039;BME280;63609;49.992;14.512;2023-02-01T05:59:45;97870.69;;;-0.00;70.88
75039;BME280;63609;49.992;14.512;2023-02-01T06:02:12;97863.94;;;-0.04;70.86
75039;BME280;63609;49.992;14.512;2023-02-01T06:04:40;97862.94;;;0.27;70.11
75039;BME280;63609;49.992;14.512;2023-02-01T06:07:08;97840.44;;;0.08;70.15
75039;BME280;63609;49.992;14.512;2023-02-01T06:09:36;97850.94;;;0.23;69.76
75039;BME280;63609;49.992;14.512;2023-02-01T06:12:05;97839.31;;;0.12;70.67
75039;BME280;63609;49.992;14.512;2023-02-01T06:14:33;97848.56;;;0.04;70.35
75039;BME280;63609;49.992;14.512;2023-02-01T06:17:00;97850.38;;;0.17;69.38
75039;BME280;63609;49.992;14.512;2023-02-01T06:19:28;97847.56;;;0.21;70.57
75039;BME280;63609;49.992;14.512;2023-02-01T06:21:54;97863.22;;;0.08;69.94
75039;BME280;63609;49.992;14.512;2023-02-01T06:24:22;97844.75;;;0.09;70.44
75039;BME280;63609;49.992;14.512;2023-02-01T06:26:49;97863.94;;;-0.04;70.83
75039;BME280;63609;49.992;14.512;2023-02-01T06:29:16;97843.00;;;-0.20;71.99
75039;BME280;63609;49.992;14.512;2023-02-01T06:31:43;97843.16;;;0.07;71.51
75039;BME280;63609;49.992;14.512;2023-02-01T06:34:10;97841.16;;;-0.04;71.16
75039;BME280;63609;49.992;14.512;2023-02-01T06:36:37;97848.41;;;0.07;71.16
75039;BME280;63609;49.992;14.512;2023-02-01T06:39:07;97847.84;;;0.16;71.05
75039;BME280;63609;49.992;14.512;2023-02-01T06:41:38;97847.66;;;0.33;69.77
75039;BME280;63609;49.992;14.512;2023-02-01T06:44:05;97841.13;;;0.40;70.06
75039;BME280;63609;49.992;14.512;2023-02-01T06:46:32;97854.22;;;0.26;70.05
75039;BME280;63609;49.992;14.512;2023-02-01T06:49:06;97859.31;;;0.43;70.30
75039;BME280;63609;49.992;14.512;2023-02-01T06:51:35;97852.28;;;0.44;69.53
75039;BME280;63609;49.992;14.512;2023-02-01T06:54:01;97836.31;;;0.33;70.36
75039;BME280;63609;49.992;14.512;2023-02-01T06:56:29;97839.53;;;0.52;69.96
75039;BME280;63609;49.992;14.512;2023-02-01T06:58:57;97838.31;;;0.43;70.41
75039;BME280;63609;49.992;14.512;2023-02-01T07:01:25;97835.97;;;0.39;70.36
75039;BME280;63609;49.992;14.512;2023-02-01T07:03:52;97833.53;;;0.50;70.32
75039;BME280;63609;49.992;14.512;2023-02-01T07:06:20;97846.47;;;0.53;69.66
75039;BME280;63609;49.992;14.512;2023-02-01T07:08:49;97846.81;;;0.18;71.15
75039;BME280;63609;49.992;14.512;2023-02-01T07:11:18;97845.16;;;0.46;70.58
75039;BME280;63609;49.992;14.512;2023-02-01T07:13:48;97843.16;;;0.35;70.82
75039;BME280;63609;49.992;14.512;2023-02-01T07:16:17;97836.50;;;0.58;69.35
75039;BME280;63609;49.992;14.512;2023-02-01T07:18:46;97826.88;;;0.44;70.04
75039;BME280;63609;49.992;14.512;2023-02-01T07:21:14;97840.84;;;0.73;69.80
75039;BME280;63609;49.992;14.512;2023-02-01T07:23:41;97825.16;;;0.72;69.50
75039;BME280;63609;49.992;14.512;2023-02-01T07:26:11;97837.47;;;0.71;69.48
75039;BME280;63609;49.992;14.512;2023-02-01T07:28:41;97834.84;;;0.71;69.26
75039;BME280;63609;49.992;14.512;2023-02-01T07:31:10;97829.97;;;0.51;69.20
75039;BME280;63609;49.992;14.512;2023-02-01T07:33:40;97832.09;;;0.73;69.18
75039;BME280;63609;49.992;14.512;2023-02-01T07:36:15;97825.25;;;0.70;68.30
75039;BME280;63609;49.992;14.512;2023-02-01T07:38:42;97831.22;;;0.87;68.26
75039;BME280;63609;49.992;14.512;2023-02-01T07:41:14;97828.06;;;0.67;68.99
75039;BME280;63609;49.992;14.512;2023-02-01T07:43:53;97827.22;;;0.67;69.22
75039;BME280;63609;49.992;14.512;2023-02-01T07:46:23;97836.53;;;0.44;69.91
75039;BME280;63609;49.992;14.512;2023-02-01T07:48:58;97829.00;;;0.80;69.11
75039;BME280;63609;49.992;14.512;2023-02-01T07:51:27;97830.69;;;0.81;69.01
75039;BME280;63609;49.992;14.512;2023-02-01T07:53:55;97812.22;;;0.55;69.84
75039;BME280;63609;49.992;14.512;2023-02-01T07:56:25;97816.34;;;0.59;69.89
75039;BME280;63609;49.992;14.512;2023-02-01T07:58:54;97819.44;;;0.51;69.98
75039;BME280;63609;49.992;14.512;2023-02-01T08:01:28;97810.06;;;0.47;70.08
75039;BME280;63609;49.992;14.512;2023-02-01T08:03:56;97818.97;;;0.73;69.87
75039;BME280;63609;49.992;14.512;2023-02-01T08:06:25;97823.28;;;0.74;69.94
75039;BME280;63609;49.992;14.512;2023-02-01T08:08:53;97818.38;;;0.68;69.92
75039;BME280;63609;49.992;14.512;2023-02-01T08:11:22;97817.38;;;0.70;69.97
75039;BME280;63609;49.992;14.512;2023-02-01T08:13:50;97818.97;;;0.59;70.50
75039;BME280;63609;49.992;14.512;2023-02-01T08:16:20;97825.53;;;0.66;70.44
75039;BME280;63609;49.992;14.512;2023-02-01T08:18:48;97827.59;;;0.61;70.53
75039;BME280;63609;49.992;14.512;2023-02-01T08:21:16;97827.41;;;0.64;70.20
75039;BME280;63609;49.992;14.512;2023-02-01T08:23:44;97835.00;;;0.68;70.87
75039;BME280;63609;49.992;14.512;2023-02-01T08:26:12;97838.31;;;0.99;70.06
75039;BME280;63609;49.992;14.512;2023-02-01T08:28:43;97825.53;;;0.80;70.23
75039;BME280;63609;49.992;14.512;2023-02-01T08:31:13;97825.06;;;0.73;70.55
75039;BME280;63609;49.992;14.512;2023-02-01T08:33:42;97823.84;;;0.65;71.12
75039;BME280;63609;49.992;14.512;2023-02-01T08:36:12;97809.13;;;0.48;71.20
75039;BME280;63609;49.992;14.512;2023-02-01T08:38:39;97804.78;;;0.75;71.00
75039;BME280;63609;49.992;14.512;2023-02-01T08:41:13;97801.81;;;0.94;70.71
75039;BME280;63609;49.992;14.512;2023-02-01T08:43:41;97807.47;;;0.88;70.61
75039;BME280;63609;49.992;14.512;2023-02-01T08:46:09;97810.06;;;0.75;70.27
75039;BME280;63609;49.992;14.512;2023-02-01T08:48:37;97797.00;;;0.74;70.82
75039;BME280;63609;49.992;14.512;2023-02-01T08:51:08;97808.31;;;0.89;70.30
75039;BME280;63609;49.992;14.512;2023-02-01T08:53:37;97811.53;;;0.65;69.94
75039;BME280;63609;49.992;14.512;2023-02-01T08:56:09;97804.91;;;1.01;69.59
75039;BME280;63609;49.992;14.512;2023-02-01T08:58:36;97799.91;;;0.84;70.12
75039;BME280;63609;49.992;14.512;2023-02-01T09:01:05;97805.00;;;0.72;70.14
75039;BME280;63609;49.992;14.512;2023-02-01T09:03:33;97791.25;;;0.81;69.35
75039;BME280;63609;49.992;14.512;2023-02-01T09:06:04;97797.25;;;0.84;68.64
75039;BME280;63609;49.992;14.512;2023-02-01T09:08:32;97803.78;;;1.05;68.79
75039;BME280;63609;49.992;14.512;2023-02-01T09:11:01;97800.47;;;1.01;68.32
75039;BME280;63609;49.992;14.512;2023-02-01T09:13:29;97806.88;;;1.11;67.86
75039;BME280;63609;49.992;14.512;2023-02-01T09:15:56;97791.63;;;1.17;67.65
75039;BME280;63609;49.992;14.512;2023-02-01T09:18:23;97798.44;;;1.06;68.59
75039;BME280;63609;49.992;14.512;2023-02-01T09:20:51;97795.63;;;1.22;66.77
75039;BME280;63609;49.992;14.512;2023-02-01T09:23:18;97801.34;;;1.29;67.51
75039;BME280;63609;49.992;14.512;2023-02-01T09:25:46;97794.28;;;1.29;67.03
75039;BME280;63609;49.992;14.512;2023-02-01T09:28:17;97798.22;;;1.36;66.76
75039;BME280;63609;49.992;14.512;2023-02-01T09:30:45;97794.06;;;1.47;66.55
75039;BME280;63609;49.992;14.512;2023-02-01T09:33:12;97799.25;;;1.34;66.51
75039;BME280;63609;49.992;14.512;2023-02-01T09:35:40;97788.00;;;1.59;64.82
75039;BME280;63609;49.992;14.512;2023-02-01T09:38:07;97795.69;;;1.62;66.28
75039;BME280;63609;49.992;14.512;2023-02-01T09:40:43;97791.13;;;2.03;65.10
75039;BME280;63609;49.992;14.512;2023-02-01T09:44:13;97784.88;;;1.79;64.61
75039;BME280;63609;49.992;14.512;2023-02-01T09:46:29;97790.50;;;1.33;66.39
75039;BME280;63609;49.992;14.512;2023-02-01T09:49:01;97784.59;;;1.44;65.60
75039;BME280;63609;49.992;14.512;2023-02-01T09:51:37;97771.94;;;1.89;64.86
75039;BME280;63609;49.992;14.512;2023-02-01T09:54:17;97760.31;;;1.66;64.96
75039;BME280;63609;49.992;14.512;2023-02-01T09:59:47;97772.81;;;1.50;65.28
75039;BME280;63609;49.992;14.512;2023-02-01T10:02:20;97770.75;;;1.67;65.14
75039;BME280;63609;49.992;14.512;2023-02-01T10:04:49;97770.09;;;1.64;65.35
75039;BME280;63609;49.992;14.512;2023-02-01T10:10:09;97759.72;;;1.35;65.84
75039;BME280;63609;49.992;14.512;2023-02-01T10:20:55;97772.72;;;1.64;64.51
75039;BME280;63609;49.992;14.512;2023-02-01T10:26:22;97790.63;;;1.59;65.96
75039;BME280;63609;49.992;14.512;2023-02-01T10:28:56;97775.47;;;1.62;64.74
75039;BME280;63609;49.992;14.512;2023-02-01T10:31:27;97781.56;;;1.63;66.55
75039;BME280;63609;49.992;14.512;2023-02-01T10:33:57;97780.25;;;1.70;65.98
75039;BME280;63609;49.992;14.512;2023-02-01T10:36:47;97771.63;;;1.68;66.45
75039;BME280;63609;49.992;14.512;2023-02-01T10:39:17;97775.22;;;1.40;67.04
75039;BME280;63609;49.992;14.512;2023-02-01T10:41:44;97771.25;;;1.33;67.39
75039;BME280;63609;49.992;14.512;2023-02-01T10:44:22;97771.53;;;1.16;67.10
75039;BME280;63609;49.992;14.512;2023-02-01T10:46:51;97773.97;;;1.19;66.97
75039;BME280;63609;49.992;14.512;2023-02-01T10:49:32;97758.94;;;1.48;67.07
75039;BME280;63609;49.992;14.512;2023-02-01T10:52:12;97761.78;;;1.45;65.74
75039;BME280;63609;49.992;14.512;2023-02-01T10:54:39;97761.09;;;1.68;65.83
75039;BME280;63609;49.992;14.512;2023-02-01T10:57:21;97739.38;;;1.64;64.91
75039;BME280;63609;49.992;14.512;2023-02-01T10:59:50;97761.16;;;1.66;65.13
75039;BME280;63609;49.992;14.512;2023-02-01T11:02:30;97752.69;;;1.36;63.86
75039;BME280;63609;49.992;14.512;2023-02-01T11:05:04;97755.72;;;1.69;64.46
75039;BME280;63609;49.992;14.512;2023-02-01T11:07:32;97752.75;;;1.99;64.20
75039;BME280;63609;49.992;14.512;2023-02-01T11:10:00;97755.81;;;1.68;63.75
75039;BME280;63609;49.992;14.512;2023-02-01T11:12:33;97751.63;;;1.78;63.52
75039;BME280;63609;49.992;14.512;2023-02-01T11:15:21;97762.25;;;1.77;63.54
75039;BME280;63609;49.992;14.512;2023-02-01T11:17:51;97750.53;;;1.55;63.04
75039;BME280;63609;49.992;14.512;2023-02-01T11:22:58;97745.19;;;1.69;63.65
75039;BME280;63609;49.992;14.512;2023-02-01T11:25:25;97747.25;;;1.52;63.59
75039;BME280;63609;49.992;14.512;2023-02-01T11:27:54;97736.97;;;1.74;62.57
75039;BME280;63609;49.992;14.512;2023-02-01T11:30:44;97740.34;;;2.01;62.64
75039;BME280;63609;49.992;14.512;2023-02-01T11:33:17;97740.56;;;2.11;61.69
75039;BME280;63609;49.992;14.512;2023-02-01T11:35:49;97743.59;;;2.18;61.62
75039;BME280;63609;49.992;14.512;2023-02-01T11:38:30;97736.56;;;2.55;61.75
75039;BME280;63609;49.992;14.512;2023-02-01T11:41:26;97743.75;;;2.89;60.47
75039;BME280;63609;49.992;14.512;2023-02-01T11:43:55;97737.63;;;2.89;60.12
75039;BME280;63609;49.992;14.512;2023-02-01T11:46:27;97732.91;;;2.45;60.45
75039;BME280;63609;49.992;14.512;2023-02-01T11:48:56;97735.66;;;2.43;60.29
75039;BME280;63609;49.992;14.512;2023-02-01T11:52:10;97725.84;;;2.45;59.61
75039;BME280;63609;49.992;14.512;2023-02-01T12:06:08;97733.19;;;2.65;58.29
75039;BME280;63609;49.992;14.512;2023-02-01T12:14:08;97733.84;;;2.56;56.81
75039;BME280;63609;49.992;14.512;2023-02-01T12:19:21;97735.63;;;3.16;56.10
75039;BME280;63609;49.992;14.512;2023-02-01T12:25:20;97750.16;;;2.98;56.61
75039;BME280;63609;49.992;14.512;2023-02-01T12:36:21;97763.88;;;2.90;56.78
75039;BME280;63609;49.992;14.512;2023-02-01T12:41:51;97741.94;;;2.66;57.93
75039;BME280;63609;49.992;14.512;2023-02-01T12:44:38;97740.16;;;2.66;57.91
75039;BME280;63609;49.992;14.512;2023-02-01T12:52:19;97729.34;;;3.06;58.25
75039;BME280;63609;49.992;14.512;2023-02-01T12:55:05;97731.47;;;2.77;58.64
75039;BME280;63609;49.992;14.512;2023-02-01T12:57:37;97744.59;;;2.90;57.71
75039;BME280;63609;49.992;14.512;2023-02-01T13:00:20;97742.56;;;2.93;58.27
75039;BME280;63609;49.992;14.512;2023-02-01T13:05:19;97752.84;;;3.33;57.51
75039;BME280;63609;49.992;14.512;2023-02-01T13:07:56;97747.06;;;3.63;56.67
75039;BME280;63609;49.992;14.512;2023-02-01T13:10:33;97750.81;;;3.37;55.05
75039;BME280;63609;49.992;14.512;2023-02-01T13:15:58;97748.06;;;3.14;55.96
75039;BME280;63609;49.992;14.512;2023-02-01T13:18:39;97755.19;;;3.25;57.03
75039;BME280;63609;49.992;14.512;2023-02-01T13:21:10;97752.50;;;3.14;56.57
75039;BME280;63609;49.992;14.512;2023-02-01T13:23:44;97736.19;;;3.09;55.67
75039;BME280;63609;49.992;14.512;2023-02-01T13:26:13;97747.19;;;3.03;55.61
75039;BME280;63609;49.992;14.512;2023-02-01T13:28:51;97751.47;;;3.27;55.77
75039;BME280;63609;49.992;14.512;2023-02-01T13:40:20;97750.59;;;3.16;54.41
75039;BME280;63609;49.992;14.512;2023-02-01T13:43:06;97749.53;;;3.42;53.31
75039;BME280;63609;49.992;14.512;2023-02-01T13:45:37;97749.69;;;3.28;53.68
75039;BME280;63609;49.992;14.512;2023-02-01T13:51:04;97732.97;;;3.16;52.63
75039;BME280;63609;49.992;14.512;2023-02-01T13:53:34;97748.19;;;3.13;52.80
75039;BME280;63609;49.992;14.512;2023-02-01T13:56:17;97762.69;;;2.94;52.42
75039;BME280;63609;49.992;14.512;2023-02-01T13:58:46;97748.47;;;3.21;51.74
75039;BME280;63609;49.992;14.512;2023-02-01T14:04:00;97746.09;;;3.29;51.89
75039;BME280;63609;49.992;14.512;2023-02-01T14:09:11;97755.34;;;2.87;54.43
75039;BME280;63609;49.992;14.512;2023-02-01T14:11:52;97757.59;;;2.80;55.33
75039;BME280;63609;49.992;14.512;2023-02-01T14:19:24;97752.59;;;2.88;54.48
75039;BME280;63609;49.992;14.512;2023-02-01T14:22:47;97751.72;;;3.01;54.44
75039;BME280;63609;49.992;14.512;2023-02-01T14:24:54;97753.81;;;3.08;55.04
75039;BME280;63609;49.992;14.512;2023-02-01T14:27:28;97750.91;;;3.00;56.28
75039;BME280;63609;49.992;14.512;2023-02-01T14:29:58;97742.56;;;2.70;56.74
75039;BME280;63609;49.992;14.512;2023-02-01T14:32:40;97734.72;;;2.81;57.03
75039;BME280;63609;49.992;14.512;2023-02-01T14:35:21;97744.19;;;2.83;57.38
75039;BME280;63609;49.992;14.512;2023-02-01T14:37:52;97741.00;;;2.67;56.97
75039;BME280;63609;49.992;14.512;2023-02-01T14:40:25;97740.44;;;2.75;57.83
75039;BME280;63609;49.992;14.512;2023-02-01T14:42:54;97744.63;;;2.77;57.39
75039;BME280;63609;49.992;14.512;2023-02-01T14:47:52;97742.78;;;2.54;57.97
75039;BME280;63609;49.992;14.512;2023-02-01T14:50:35;97735.38;;;2.72;57.88
75039;BME280;63609;49.992;14.512;2023-02-01T15:01:01;97742.91;;;2.52;58.62
75039;BME280;63609;49.992;14.512;2023-02-01T15:06:18;97754.06;;;2.56;57.65
75039;BME280;63609;49.992;14.512;2023-02-01T15:08:47;97746.03;;;2.33;56.41
75039;BME280;63609;49.992;14.512;2023-02-01T15:11:15;97739.97;;;2.44;57.30
75039;BME280;63609;49.992;14.512;2023-02-01T15:13:52;97746.22;;;3.04;56.91
75039;BME280;63609;49.992;14.512;2023-02-01T15:16:23;97737.97;;;3.08;56.52
75039;BME280;63609;49.992;14.512;2023-02-01T15:19:07;97747.59;;;2.73;57.90
75039;BME280;63609;49.992;14.512;2023-02-01T15:21:47;97741.00;;;2.54;57.98
75039;BME280;63609;49.992;14.512;2023-02-01T15:24:30;97742.66;;;2.68;57.53
75039;BME280;63609;49.992;14.512;2023-02-01T15:27:04;97736.63;;;2.29;58.13
75039;BME280;63609;49.992;14.512;2023-02-01T15:29:31;97737.63;;;2.52;58.41
75039;BME280;63609;49.992;14.512;2023-02-01T15:32:02;97730.47;;;2.54;58.08
75039;BME280;63609;49.992;14.512;2023-02-01T15:34:49;97727.38;;;2.24;59.52
75039;BME280;63609;49.992;14.512;2023-02-01T15:37:16;97735.25;;;2.36;59.06
75039;BME280;63609;49.992;14.512;2023-02-01T15:40:25;97727.16;;;2.27;59.62
75039;BME280;63609;49.992;14.512;2023-02-01T15:42:58;97721.28;;;2.11;59.47
75039;BME280;63609;49.992;14.512;2023-02-01T15:45:31;97723.28;;;2.07;59.38
75039;BME280;63609;49.992;14.512;2023-02-01T15:48:01;97715.94;;;1.74;59.81
75039;BME280;63609;49.992;14.512;2023-02-01T15:50:31;97722.97;;;2.12;59.30